createdAt,value
2019-01-09T00:00:04.163Z,99.90
2019-01-09T00:02:33.725Z,99.90
2019-01-09T00:05:03.878Z,99.90
2019-01-09T00:07:35.082Z,99.90
2019-01-09T00:10:04.762Z,99.90
2019-01-09T00:12:34.547Z,99.90
2019-01-09T00:15:04.491Z,99.90
2019-01-09T00:17:35.171Z,99.90
2019-01-09T00:20:05.314Z,99.90
2019-01-09T00:22:34.668Z,99.90
2019-01-09T00:25:03.967Z,99.90
2019-01-09T00:27:33.721Z,99.90
2019-01-09T00:30:04.813Z,99.90
2019-01-09T00:32:35.082Z,99.90
2019-01-09T00:35:04.526Z,99.90
2019-01-09T00:37:33.933Z,99.90
2019-01-09T00:40:03.713Z,99.90
2019-01-09T00:42:33.030Z,99.90
2019-01-09T00:45:04.230Z,99.90
2019-01-09T00:47:33.813Z,99.90
2019-01-09T00:50:03.716Z,99.90
2019-01-09T00:52:33.596Z,99.90
2019-01-09T00:55:03.806Z,99.90
2019-01-09T00:57:34.395Z,99.90
2019-01-09T01:00:08.033Z,99.90
2019-01-09T01:03:38.045Z,99.90
2019-01-09T01:06:47.977Z,99.90
2019-01-09T01:10:03.929Z,99.90
2019-01-09T01:13:00.095Z,99.90
2019-01-09T01:16:14.122Z,99.90
2019-01-09T01:19:30.981Z,99.90
2019-01-09T01:22:06.579Z,99.90
2019-01-09T01:25:03.693Z,99.90
2019-01-09T01:28:09.716Z,99.90
2019-01-09T01:31:19.479Z,99.90
2019-01-09T01:34:32.506Z,99.90
2019-01-09T01:37:36.278Z,99.90
2019-01-09T01:40:14.786Z,99.90
2019-01-09T01:43:37.990Z,99.90
2019-01-09T01:46:53.669Z,99.90
2019-01-09T01:50:13.613Z,99.90
2019-01-09T01:53:22.809Z,99.90
2019-01-09T01:56:33.582Z,99.90
2019-01-09T01:59:19.297Z,99.90
2019-01-09T02:02:32.959Z,99.90
2019-01-09T02:05:26.462Z,99.90
2019-01-09T02:08:45.355Z,99.90
2019-01-09T02:11:43.850Z,99.90
2019-01-09T02:14:42.556Z,99.90
2019-01-09T02:17:50.223Z,99.90
2019-01-09T02:20:53.957Z,99.90
2019-01-09T02:23:53.522Z,99.90
2019-01-09T02:26:45.838Z,99.90
2019-01-09T02:29:56.827Z,99.90
2019-01-09T02:32:33.946Z,99.90
2019-01-09T02:35:03.518Z,99.90
2019-01-09T02:37:33.074Z,99.90
2019-01-09T02:40:03.225Z,99.90
2019-01-09T02:42:33.193Z,99.90
2019-01-09T02:45:02.522Z,99.90
2019-01-09T02:47:31.995Z,99.90
2019-01-09T02:50:02.548Z,99.90
2019-01-09T02:52:32.358Z,99.90
2019-01-09T02:55:01.942Z,99.90
2019-01-09T02:57:31.597Z,99.90
2019-01-09T03:00:01.858Z,99.90
2019-01-09T03:02:31.907Z,99.90
2019-01-09T03:05:01.416Z,99.90
2019-01-09T03:07:31.227Z,99.90
2019-01-09T03:10:01.335Z,99.90
2019-01-09T03:12:36.531Z,99.90
2019-01-09T03:15:09.470Z,99.90
2019-01-09T03:17:38.961Z,99.90
2019-01-09T03:20:08.850Z,99.90
2019-01-09T03:22:38.726Z,99.90
2019-01-09T03:25:08.749Z,99.90
2019-01-09T03:27:38.166Z,99.90
2019-01-09T03:30:08.641Z,99.90
2019-01-09T03:32:38.050Z,99.90
2019-01-09T03:35:07.656Z,99.90
2019-01-09T03:37:36.949Z,99.90
2019-01-09T03:40:07.118Z,99.90
2019-01-09T03:42:37.469Z,99.90
2019-01-09T03:45:07.602Z,99.90
2019-01-09T03:47:38.568Z,99.90
2019-01-09T03:50:09.354Z,99.90
2019-01-09T03:52:39.303Z,99.90
2019-01-09T03:55:13.788Z,99.90
2019-01-09T03:57:47.301Z,99.90
2019-01-09T04:00:19.876Z,99.90
2019-01-09T04:02:49.876Z,99.90
2019-01-09T04:05:21.057Z,99.90
2019-01-09T04:07:53.503Z,99.90
2019-01-09T04:10:23.412Z,99.90
2019-01-09T04:12:56.334Z,99.90
2019-01-09T04:15:26.549Z,99.90
2019-01-09T04:17:55.933Z,99.90
2019-01-09T04:20:26.249Z,99.90
2019-01-09T04:22:55.752Z,99.90
2019-01-09T04:25:25.938Z,99.90
2019-01-09T04:27:56.905Z,99.90
2019-01-09T04:30:26.664Z,99.90
2019-01-09T04:32:56.164Z,99.90
2019-01-09T04:35:26.623Z,99.90
2019-01-09T04:37:56.429Z,99.90
2019-01-09T04:40:26.483Z,99.90
2019-01-09T04:42:56.542Z,99.90
2019-01-09T04:45:26.120Z,99.90
2019-01-09T04:47:55.537Z,99.90
2019-01-09T04:50:25.533Z,99.90
2019-01-09T04:52:55.235Z,99.90
2019-01-09T04:55:25.446Z,99.90
2019-01-09T04:57:55.278Z,99.90
2019-01-09T05:00:24.831Z,99.90
2019-01-09T05:02:54.288Z,99.90
2019-01-09T05:05:24.035Z,99.90
2019-01-09T05:07:53.518Z,99.90
2019-01-09T05:10:23.435Z,99.90
2019-01-09T05:12:53.158Z,99.90
2019-01-09T05:15:22.744Z,99.90
2019-01-09T05:17:58.440Z,99.90
2019-01-09T05:20:27.912Z,99.90
2019-01-09T05:22:57.516Z,99.90
2019-01-09T05:25:27.210Z,99.90
2019-01-09T05:27:57.159Z,99.90
2019-01-09T05:30:27.326Z,99.90
2019-01-09T05:32:57.325Z,99.90
2019-01-09T05:35:26.894Z,99.90
2019-01-09T05:37:57.871Z,99.90
2019-01-09T05:40:27.538Z,99.90
2019-01-09T05:42:57.012Z,99.90
2019-01-09T05:45:27.071Z,99.90
2019-01-09T05:47:56.713Z,99.90
2019-01-09T05:50:26.547Z,99.90
2019-01-09T05:52:56.074Z,99.90
2019-01-09T05:55:25.658Z,99.90
2019-01-09T05:57:55.509Z,99.90
2019-01-09T06:00:25.433Z,99.90
2019-01-09T06:02:54.942Z,99.90
2019-01-09T06:05:24.602Z,99.90
2019-01-09T06:07:54.520Z,99.90
2019-01-09T06:10:24.159Z,99.90
2019-01-09T06:12:53.725Z,99.90
2019-01-09T06:15:23.987Z,99.90
2019-01-09T06:17:54.042Z,99.90
2019-01-09T06:20:23.695Z,99.90
2019-01-09T06:22:53.645Z,99.90
2019-01-09T06:25:23.791Z,99.90
2019-01-09T06:27:54.200Z,99.90
2019-01-09T06:30:33.946Z,99.90
2019-01-09T06:33:03.690Z,99.90
2019-01-09T06:35:33.577Z,99.90
2019-01-09T06:38:03.500Z,99.90
2019-01-09T06:40:33.091Z,99.90
2019-01-09T06:43:02.721Z,99.90
2019-01-09T06:45:32.127Z,99.90
2019-01-09T06:48:04.659Z,99.90
2019-01-09T06:50:35.560Z,99.90
2019-01-09T06:53:05.408Z,99.90
2019-01-09T06:55:35.010Z,99.90
2019-01-09T06:58:05.249Z,99.90
2019-01-09T07:00:35.344Z,99.90
2019-01-09T07:03:05.346Z,99.90
2019-01-09T07:05:34.846Z,99.90
2019-01-09T07:08:05.197Z,99.90
2019-01-09T07:10:34.856Z,99.90
2019-01-09T07:13:07.035Z,99.90
2019-01-09T07:15:37.345Z,99.90
2019-01-09T07:18:07.242Z,99.90
2019-01-09T07:20:36.843Z,99.90
2019-01-09T07:23:09.374Z,99.90
2019-01-09T07:25:39.231Z,99.90
2019-01-09T07:28:09.281Z,99.90
2019-01-09T07:30:39.134Z,99.90
2019-01-09T07:33:08.880Z,99.90
2019-01-09T07:35:38.390Z,99.90
2019-01-09T07:38:10.717Z,99.90
2019-01-09T07:40:40.695Z,99.90
2019-01-09T07:43:10.008Z,99.90
2019-01-09T07:45:39.539Z,99.90
2019-01-09T07:48:09.261Z,99.90
2019-01-09T07:50:42.147Z,99.90
2019-01-09T07:53:12.700Z,99.90
2019-01-09T07:55:42.929Z,99.90
2019-01-09T07:58:18.940Z,99.90
2019-01-09T08:00:45.892Z,99.90
2019-01-09T08:03:17.018Z,99.90
2019-01-09T08:05:46.510Z,99.90
2019-01-09T08:08:18.570Z,99.90
2019-01-09T08:10:48.082Z,99.90
2019-01-09T08:13:17.758Z,99.90
2019-01-09T08:15:49.646Z,99.90
2019-01-09T08:18:19.022Z,99.90
2019-01-09T08:20:48.482Z,99.90
2019-01-09T08:23:17.886Z,99.90
2019-01-09T08:25:47.294Z,99.90
2019-01-09T08:28:16.712Z,99.90
2019-01-09T08:30:46.133Z,99.90
2019-01-09T08:33:15.634Z,99.90
2019-01-09T08:35:45.050Z,99.90
2019-01-09T08:38:14.401Z,99.90
2019-01-09T08:40:44.326Z,99.90
2019-01-09T08:43:15.801Z,99.90
2019-01-09T08:45:45.166Z,99.90
2019-01-09T08:48:14.714Z,99.90
2019-01-09T08:50:44.382Z,99.90
2019-01-09T08:53:13.947Z,99.90
2019-01-09T08:55:44.119Z,99.90
2019-01-09T08:58:13.576Z,99.90
2019-01-09T09:00:43.423Z,99.90
2019-01-09T09:03:15.785Z,99.90
2019-01-09T09:05:45.240Z,99.90
2019-01-09T09:08:15.446Z,99.90
2019-01-09T09:10:44.762Z,99.90
2019-01-09T09:13:37.227Z,99.90
2019-01-09T09:16:08.714Z,99.90
2019-01-09T09:18:38.230Z,99.90
2019-01-09T09:21:07.637Z,99.90
2019-01-09T09:23:37.029Z,99.90
2019-01-09T09:26:06.912Z,99.90
2019-01-09T09:28:36.443Z,99.90
2019-01-09T09:31:06.085Z,99.90
2019-01-09T09:33:37.723Z,99.90
2019-01-09T09:36:07.262Z,99.90
2019-01-09T09:38:36.777Z,99.90
2019-01-09T09:41:06.174Z,99.90
2019-01-09T09:43:44.655Z,99.90
2019-01-09T09:46:15.473Z,99.90
2019-01-09T09:48:44.895Z,99.90
2019-01-09T09:51:14.223Z,99.90
2019-01-09T09:53:43.593Z,99.90
2019-01-09T09:56:13.490Z,99.90
2019-01-09T09:58:42.952Z,99.90
2019-01-09T10:01:12.407Z,99.90
2019-01-09T10:03:42.978Z,99.90
2019-01-09T10:06:13.031Z,99.90
2019-01-09T10:08:42.435Z,99.90
2019-01-09T10:11:12.116Z,99.90
2019-01-09T10:13:42.347Z,99.90
2019-01-09T10:16:11.757Z,99.90
2019-01-09T10:18:41.122Z,99.90
2019-01-09T10:21:10.790Z,99.90
2019-01-09T10:23:40.291Z,99.90
2019-01-09T10:26:12.172Z,99.90
2019-01-09T10:28:41.455Z,99.90
2019-01-09T10:31:10.877Z,99.90
2019-01-09T10:33:43.130Z,99.90
2019-01-09T10:36:14.812Z,99.90
2019-01-09T10:38:44.633Z,99.90
2019-01-09T10:41:14.247Z,99.90
2019-01-09T10:43:43.878Z,99.90
2019-01-09T10:46:14.245Z,99.90
2019-01-09T10:48:43.685Z,99.90
2019-01-09T10:51:13.508Z,99.90
2019-01-09T10:53:43.172Z,99.90
2019-01-09T10:56:20.930Z,99.90
2019-01-09T10:58:50.594Z,99.90
2019-01-09T11:01:20.260Z,99.90
2019-01-09T11:03:49.860Z,99.90
2019-01-09T11:06:19.291Z,99.90
2019-01-09T11:08:48.712Z,99.90
2019-01-09T11:11:20.737Z,99.90
2019-01-09T11:13:50.260Z,99.90
2019-01-09T11:16:19.792Z,99.90
2019-01-09T11:18:52.652Z,99.90
2019-01-09T11:21:25.985Z,99.90
2019-01-09T11:23:55.435Z,99.90
2019-01-09T11:26:26.617Z,99.90
2019-01-09T11:28:56.061Z,99.90
2019-01-09T11:31:25.626Z,99.90
2019-01-09T11:33:58.188Z,99.90
2019-01-09T11:36:27.979Z,99.90
2019-01-09T11:38:57.672Z,99.90
2019-01-09T11:41:27.438Z,99.90
2019-01-09T11:44:00.969Z,99.90
2019-01-09T11:46:36.886Z,99.90
2019-01-09T11:49:09.630Z,99.90
2019-01-09T11:51:39.244Z,99.90
2019-01-09T11:54:09.196Z,99.90
2019-01-09T11:56:38.557Z,99.90
2019-01-09T11:59:08.066Z,99.90
2019-01-09T12:01:37.508Z,99.90
2019-01-09T12:04:06.892Z,99.90
2019-01-09T12:06:36.572Z,99.90
2019-01-09T12:09:10.690Z,99.90
2019-01-09T12:11:42.982Z,99.90
2019-01-09T12:14:12.598Z,99.90
2019-01-09T12:16:42.195Z,99.90
2019-01-09T12:19:11.983Z,99.90
2019-01-09T12:21:42.936Z,99.90
2019-01-09T12:24:12.466Z,99.90
2019-01-09T12:26:41.837Z,99.90
2019-01-09T12:29:11.206Z,99.90
2019-01-09T12:31:40.637Z,99.90
2019-01-09T12:34:10.052Z,99.90
2019-01-09T12:36:39.575Z,99.90
2019-01-09T12:39:13.289Z,99.90
2019-01-09T12:41:41.695Z,99.90
2019-01-09T12:44:11.383Z,99.90
2019-01-09T12:46:43.224Z,99.90
2019-01-09T12:49:12.726Z,99.90
2019-01-09T12:51:42.243Z,99.90
2019-01-09T12:54:11.581Z,99.90
2019-01-09T12:56:41.077Z,99.90
2019-01-09T12:59:10.793Z,99.90
2019-01-09T13:01:40.198Z,99.90
2019-01-09T13:04:10.071Z,99.90
2019-01-09T13:06:39.766Z,99.90
2019-01-09T13:09:10.654Z,99.90
2019-01-09T13:11:40.434Z,99.90
2019-01-09T13:14:09.861Z,99.90
2019-01-09T13:16:47.454Z,99.90
2019-01-09T13:19:10.542Z,99.90
2019-01-09T13:21:39.946Z,99.90
2019-01-09T13:24:09.329Z,99.90
2019-01-09T13:26:39.026Z,99.90
2019-01-09T13:29:08.569Z,99.60
2019-01-09T13:31:37.986Z,99.40
2019-01-09T13:34:09.569Z,99.50
2019-01-09T13:36:39.119Z,99.90
2019-01-09T13:39:09.739Z,99.70
2019-01-09T13:41:39.394Z,99.10
2019-01-09T13:44:08.719Z,99.50
2019-01-09T13:46:38.659Z,99.60
2019-01-09T13:49:08.084Z,99.70
2019-01-09T13:51:37.580Z,99.90
2019-01-09T13:54:07.023Z,99.90
2019-01-09T13:56:36.437Z,99.90
2019-01-09T13:59:10.499Z,98.40
2019-01-09T14:01:39.531Z,98.90
2019-01-09T14:04:08.935Z,97.40
2019-01-09T14:06:38.854Z,97.50
2019-01-09T14:09:10.277Z,95.30
2019-01-09T14:11:40.094Z,96.50
2019-01-09T14:14:09.674Z,97.20
2019-01-09T14:16:39.038Z,95.40
2019-01-09T14:19:08.387Z,96.50
2019-01-09T14:21:38.202Z,96.50
2019-01-09T14:24:08.455Z,97.00
2019-01-09T14:26:37.958Z,97.00
2019-01-09T14:29:07.539Z,96.60
2019-01-09T14:31:36.946Z,97.20
2019-01-09T14:34:06.345Z,94.80
2019-01-09T14:36:35.715Z,94.30
2019-01-09T14:39:07.886Z,94.90
2019-01-09T14:41:37.386Z,94.50
2019-01-09T14:44:06.955Z,95.10
2019-01-09T14:46:36.309Z,94.90
2019-01-09T14:49:05.720Z,96.50
2019-01-09T14:51:43.074Z,96.20
2019-01-09T14:54:08.338Z,95.40
2019-01-09T14:56:37.761Z,95.70
2019-01-09T14:59:07.146Z,96.70
2019-01-09T15:01:36.648Z,95.70
2019-01-09T15:04:06.018Z,96.20
2019-01-09T15:06:35.469Z,96.70
2019-01-09T15:09:08.700Z,96.90
2019-01-09T15:11:41.158Z,97.50
2019-01-09T15:14:10.699Z,97.30
2019-01-09T15:16:40.213Z,97.40
2019-01-09T15:19:12.370Z,96.90
2019-01-09T15:21:41.808Z,96.70
2019-01-09T15:24:13.252Z,96.80
2019-01-09T15:26:42.875Z,96.90
2019-01-09T15:29:16.233Z,97.30
2019-01-09T15:31:45.582Z,96.20
2019-01-09T15:34:15.256Z,97.60
2019-01-09T15:36:44.686Z,97.80
2019-01-09T15:39:14.053Z,97.10
2019-01-09T15:41:45.404Z,97.60
2019-01-09T15:44:14.929Z,97.60
2019-01-09T15:46:45.679Z,97.20
2019-01-09T15:49:15.604Z,97.20
2019-01-09T15:51:45.204Z,98.40
2019-01-09T15:54:16.420Z,97.60
2019-01-09T15:56:46.049Z,98.30
2019-01-09T15:59:16.850Z,98.30
2019-01-09T16:01:46.640Z,98.60
2019-01-09T16:04:16.447Z,97.60
2019-01-09T16:06:47.637Z,98.10
2019-01-09T16:09:17.127Z,97.70
2019-01-09T16:11:47.636Z,97.60
2019-01-09T16:14:17.261Z,98.00
2019-01-09T16:16:47.155Z,97.40
2019-01-09T16:19:17.196Z,96.70
2019-01-09T16:21:48.255Z,96.70
2019-01-09T16:24:18.472Z,96.80
2019-01-09T16:26:48.211Z,96.80
2019-01-09T16:29:18.679Z,96.20
2019-01-09T16:31:48.412Z,96.80
2019-01-09T16:34:20.965Z,96.60
2019-01-09T16:36:56.791Z,96.50
2019-01-09T16:39:30.884Z,96.20
2019-01-09T16:41:57.414Z,96.30
2019-01-09T16:44:28.109Z,96.70
2019-01-09T16:46:59.530Z,96.90
2019-01-09T16:49:29.253Z,96.80
2019-01-09T16:51:59.924Z,96.80
2019-01-09T16:54:29.810Z,97.60
2019-01-09T16:56:59.543Z,97.70
2019-01-09T16:59:29.139Z,97.30
2019-01-09T17:01:58.646Z,98.10
2019-01-09T17:04:28.595Z,97.90
2019-01-09T17:06:58.119Z,97.80
2019-01-09T17:09:29.241Z,97.60
2019-01-09T17:11:58.649Z,98.10
2019-01-09T17:14:28.501Z,98.10
2019-01-09T17:16:58.093Z,97.20
2019-01-09T17:19:27.918Z,98.40
2019-01-09T17:22:05.573Z,97.10
2019-01-09T17:24:38.302Z,97.30
2019-01-09T17:27:10.837Z,98.30
2019-01-09T17:29:40.302Z,98.80
2019-01-09T17:32:09.846Z,97.60
2019-01-09T17:34:39.297Z,98.40
2019-01-09T17:37:10.393Z,98.60
2019-01-09T17:39:41.278Z,98.30
2019-01-09T17:42:10.978Z,97.70
2019-01-09T17:44:40.457Z,98.80
2019-01-09T17:47:11.400Z,97.90
2019-01-09T17:49:41.250Z,98.80
2019-01-09T17:52:10.853Z,98.90
2019-01-09T17:54:40.627Z,98.90
2019-01-09T17:57:10.094Z,98.60
2019-01-09T17:59:42.326Z,98.80
2019-01-09T18:02:11.693Z,97.50
2019-01-09T18:04:49.626Z,97.60
2019-01-09T18:07:23.229Z,98.40
2019-01-09T18:09:55.481Z,98.80
2019-01-09T18:12:25.050Z,97.90
2019-01-09T18:14:54.750Z,98.30
2019-01-09T18:17:26.214Z,99.90
2019-01-09T18:19:57.215Z,99.30
2019-01-09T18:22:27.042Z,98.60
2019-01-09T18:24:57.167Z,98.90
2019-01-09T18:27:26.702Z,99.50
2019-01-09T18:30:02.549Z,99.90
2019-01-09T18:32:40.344Z,99.00
2019-01-09T18:35:25.323Z,99.40
2019-01-09T18:38:15.479Z,99.30
2019-01-09T18:41:17.840Z,99.10
2019-01-09T18:44:15.325Z,99.00
2019-01-09T18:47:29.070Z,98.90
2019-01-09T18:50:38.870Z,99.50
2019-01-09T18:53:36.123Z,99.50
2019-01-09T18:56:06.177Z,99.90
2019-01-09T18:58:37.213Z,99.70
2019-01-09T19:01:11.097Z,99.80
2019-01-09T19:03:50.518Z,99.90
2019-01-09T19:06:18.614Z,99.50
2019-01-09T19:08:52.171Z,99.50
2019-01-09T19:11:23.748Z,99.60
2019-01-09T19:13:56.425Z,99.90
2019-01-09T19:16:26.493Z,99.90
2019-01-09T19:19:01.674Z,99.90
2019-01-09T19:21:32.873Z,99.90
2019-01-09T19:24:06.372Z,99.90
2019-01-09T19:26:43.852Z,99.90
2019-01-09T19:29:17.951Z,99.90
2019-01-09T19:31:50.077Z,99.90
2019-01-09T19:34:28.187Z,99.90
2019-01-09T19:37:02.013Z,99.90
2019-01-09T19:39:31.829Z,99.90
2019-01-09T19:42:01.562Z,99.90
2019-01-09T19:44:35.395Z,99.90
2019-01-09T19:47:05.903Z,99.90
2019-01-09T19:49:35.470Z,99.90
2019-01-09T19:52:08.083Z,99.90
2019-01-09T19:54:43.157Z,99.90
2019-01-09T19:57:15.601Z,99.90
2019-01-09T19:59:45.751Z,99.90
2019-01-09T20:02:16.961Z,99.90
2019-01-09T20:04:52.041Z,99.90
2019-01-09T20:07:24.028Z,99.90
2019-01-09T20:09:53.496Z,99.90
2019-01-09T20:12:22.969Z,99.90
2019-01-09T20:14:52.474Z,99.90
2019-01-09T20:17:22.903Z,99.90
2019-01-09T20:19:56.181Z,99.90
2019-01-09T20:22:25.644Z,99.90
2019-01-09T20:24:55.268Z,99.90
2019-01-09T20:27:25.016Z,99.90
2019-01-09T20:29:54.694Z,99.90
2019-01-09T20:32:26.430Z,99.90
2019-01-09T20:34:58.207Z,99.90
2019-01-09T20:37:28.824Z,99.90
2019-01-09T20:40:00.507Z,99.90
2019-01-09T20:42:29.953Z,99.90
2019-01-09T20:44:59.555Z,99.90
2019-01-09T20:47:33.175Z,99.90
2019-01-09T20:50:08.777Z,99.90
2019-01-09T20:52:38.539Z,99.90
2019-01-09T20:55:12.345Z,99.90
2019-01-09T20:57:42.927Z,99.90
2019-01-09T21:00:35.695Z,99.90
2019-01-09T21:03:13.736Z,99.90
2019-01-09T21:05:47.095Z,99.90
2019-01-09T21:08:16.928Z,99.90
2019-01-09T21:10:46.512Z,99.90
2019-01-09T21:13:16.215Z,99.90
2019-01-09T21:15:48.698Z,99.90
2019-01-09T21:18:18.164Z,99.90
2019-01-09T21:20:47.811Z,99.90
2019-01-09T21:23:17.346Z,99.90
2019-01-09T21:25:46.886Z,99.90
2019-01-09T21:28:16.306Z,99.90
2019-01-09T21:30:45.727Z,99.90
2019-01-09T21:33:17.107Z,99.90
2019-01-09T21:35:46.563Z,99.90
2019-01-09T21:38:16.118Z,99.90
2019-01-09T21:40:45.518Z,99.90
2019-01-09T21:43:17.745Z,99.90
2019-01-09T21:45:47.153Z,99.90
2019-01-09T21:48:16.676Z,99.90
2019-01-09T21:50:46.120Z,99.90
2019-01-09T21:53:17.155Z,99.90
2019-01-09T21:55:46.876Z,99.90
2019-01-09T21:58:16.216Z,99.90
2019-01-09T22:00:45.914Z,99.90
2019-01-09T22:03:15.359Z,99.90
2019-01-09T22:05:44.879Z,99.90
2019-01-09T22:08:14.614Z,99.90
2019-01-09T22:10:43.979Z,99.90
2019-01-09T22:13:13.390Z,99.90
2019-01-09T22:15:42.760Z,99.90
2019-01-09T22:18:12.392Z,99.90
2019-01-09T22:20:41.856Z,99.90
2019-01-09T22:23:11.304Z,99.90
2019-01-09T22:25:40.864Z,99.90
2019-01-09T22:28:10.245Z,99.90
2019-01-09T22:30:39.736Z,99.90
2019-01-09T22:33:09.176Z,99.90
2019-01-09T22:35:41.757Z,99.90
2019-01-09T22:38:09.661Z,99.90
2019-01-09T22:40:39.046Z,99.90
2019-01-09T22:43:09.598Z,99.90
2019-01-09T22:45:39.073Z,99.90
2019-01-09T22:48:08.498Z,99.90
2019-01-09T22:50:37.960Z,99.90
2019-01-09T22:53:07.390Z,99.90
2019-01-09T22:55:36.796Z,99.90
2019-01-09T22:58:06.111Z,99.90
2019-01-09T23:01:01.373Z,99.90
2019-01-09T23:03:31.332Z,99.90
2019-01-09T23:06:00.671Z,99.90
2019-01-09T23:08:31.665Z,99.90
2019-01-09T23:11:01.192Z,99.90
2019-01-09T23:16:54.502Z,99.90
2019-01-09T23:19:23.955Z,99.90
2019-01-09T23:21:53.373Z,99.90
2019-01-09T23:24:22.741Z,99.90
2019-01-09T23:26:54.907Z,99.90
2019-01-09T23:29:24.635Z,99.90
2019-01-09T23:31:54.224Z,99.90
2019-01-09T23:34:23.629Z,99.90
2019-01-09T23:36:53.150Z,99.90
2019-01-09T23:39:22.534Z,99.90
2019-01-09T23:41:52.098Z,99.90
2019-01-09T23:44:21.451Z,99.90
2019-01-09T23:46:50.876Z,99.90
2019-01-09T23:49:20.765Z,99.90
2019-01-09T23:51:50.237Z,99.90
2019-01-09T23:54:19.767Z,99.90
2019-01-09T23:56:49.170Z,99.90
2019-01-09T23:59:18.476Z,99.90
